Time;durP1;ratioP1;P1;durP2;ratioP2;P2;SDS_P1;SDS_P2;PMS_P1;PMS_P2;Temp;Humidity;BMP_temperature;BMP_pressure;BME280_temperature;BME280_humidity;BME280_pressure;Samples;Min_cycle;Max_cycle;Signal;HPM_P1;HPM_P2
2023/05/17 00:03:43;;;;;;;2.75;1.50;;;;;;;;;;8266330;28;20610;-60
2023/05/17 00:07:45;;;;;;;3.00;1.50;;;;;;;;;;8265136;28;20060;-60
2023/05/17 00:11:46;;;;;;;3.97;1.63;;;;;;;;;;8268426;28;20290;-60
2023/05/17 00:15:46;;;;;;;3.95;1.90;;;;;;;;;;8262648;28;20122;-60
2023/05/17 00:19:46;;;;;;;2.63;1.60;;;;;;;;;;8265062;28;20021;-60
2023/05/17 00:23:46;;;;;;;4.72;2.10;;;;;;;;;;8264362;28;20575;-60
2023/05/17 00:27:46;;;;;;;2.72;1.70;;;;;;;;;;8267283;28;20079;-60
2023/05/17 00:31:47;;;;;;;5.67;1.57;;;;;;;;;;8266906;28;20040;-60
2023/05/17 00:35:47;;;;;;;5.13;1.80;;;;;;;;;;8267275;28;20279;-61
2023/05/17 00:39:47;;;;;;;2.92;1.65;;;;;;;;;;8265107;28;20092;-60
2023/05/17 00:43:47;;;;;;;2.97;1.73;;;;;;;;;;8264514;28;20067;-60
2023/05/17 00:47:47;;;;;;;5.28;2.00;;;;;;;;;;8264597;28;20045;-60
2023/05/17 00:51:47;;;;;;;4.95;1.73;;;;;;;;;;8265767;28;20103;-60
2023/05/17 00:55:48;;;;;;;3.78;1.60;;;;;;;;;;8265785;28;20572;-60
2023/05/17 00:59:50;;;;;;;4.45;1.67;;;;;;;;;;8265454;28;20033;-60
2023/05/17 01:03:50;;;;;;;3.70;1.85;;;;;;;;;;8258687;28;20142;-60
2023/05/17 01:07:50;;;;;;;4.38;1.75;;;;;;;;;;8260627;28;20584;-60
2023/05/17 01:12:05;;;;;;;7.97;1.92;;;;;;;;;;8263383;28;20017;-60
2023/05/17 01:16:17;;;;;;;3.00;1.90;;;;;;;;;;8259212;28;20340;-60
2023/05/17 01:20:26;;;;;;;4.63;1.90;;;;;;;;;;8260373;28;20740;-60
2023/05/17 01:24:38;;;;;;;5.15;1.73;;;;;;;;;;8264588;28;20125;-60
2023/05/17 01:28:39;;;;;;;4.93;1.67;;;;;;;;;;8270305;28;20223;-60
2023/05/17 01:32:40;;;;;;;3.80;1.52;;;;;;;;;;8270028;28;20072;-60
2023/05/17 01:36:41;;;;;;;2.10;1.58;;;;;;;;;;8268149;28;20801;-60
2023/05/17 01:40:57;;;;;;;5.55;2.05;;;;;;;;;;8271559;28;20033;-60
2023/05/17 01:44:57;;;;;;;2.72;1.60;;;;;;;;;;8270928;28;20036;-60
2023/05/17 01:49:12;;;;;;;4.88;1.50;;;;;;;;;;8269275;28;20042;-60
2023/05/17 01:53:28;;;;;;;3.70;1.58;;;;;;;;;;8270311;28;20485;-60
2023/05/17 01:57:31;;;;;;;6.10;1.77;;;;;;;;;;8269642;28;20025;-60
2023/05/17 02:01:31;;;;;;;5.18;1.85;;;;;;;;;;8267668;28;20037;-60
2023/05/17 02:05:31;;;;;;;5.43;1.80;;;;;;;;;;8269616;28;20032;-60
2023/05/17 02:09:31;;;;;;;5.32;1.77;;;;;;;;;;8265514;28;21097;-60
2023/05/17 02:13:32;;;;;;;2.65;1.73;;;;;;;;;;8270383;28;20358;-59
2023/05/17 02:17:32;;;;;;;3.65;1.70;;;;;;;;;;8267475;28;20038;-60
2023/05/17 02:21:32;;;;;;;3.80;1.60;;;;;;;;;;8271090;28;20029;-60
2023/05/17 02:25:33;;;;;;;3.33;1.65;;;;;;;;;;8268475;28;20033;-60
2023/05/17 02:29:33;;;;;;;6.15;1.88;;;;;;;;;;8269127;28;20092;-60
2023/05/17 02:33:33;;;;;;;4.75;1.70;;;;;;;;;;8266200;28;20144;-60
2023/05/17 02:37:33;;;;;;;3.42;1.55;;;;;;;;;;8267654;28;20025;-60
2023/05/17 02:41:33;;;;;;;7.97;1.83;;;;;;;;;;8267467;28;20085;-60
2023/05/17 02:45:34;;;;;;;5.35;1.80;;;;;;;;;;8272553;28;20036;-60
2023/05/17 02:49:34;;;;;;;3.63;1.55;;;;;;;;;;8301402;28;20568;-60
2023/05/17 02:53:34;;;;;;;4.30;1.63;;;;;;;;;;8300125;28;20960;-60
2023/05/17 02:57:34;;;;;;;3.33;1.88;;;;;;;;;;8299299;28;20025;-60
2023/05/17 03:01:35;;;;;;;2.53;1.65;;;;;;;;;;8299488;28;20046;-60
2023/05/17 03:05:35;;;;;;;3.90;1.92;;;;;;;;;;8303458;28;20386;-60
2023/05/17 03:09:36;;;;;;;3.80;1.80;;;;;;;;;;8297971;28;20749;-60
2023/05/17 03:13:36;;;;;;;5.43;1.80;;;;;;;;;;8299630;28;20017;-60
2023/05/17 03:17:36;;;;;;;3.23;1.70;;;;;;;;;;8296518;28;20060;-60
2023/05/17 03:21:36;;;;;;;4.13;1.83;;;;;;;;;;8301405;28;20353;-61
2023/05/17 03:25:36;;;;;;;3.78;1.80;;;;;;;;;;8298686;28;20393;-60
2023/05/17 03:29:37;;;;;;;2.85;1.70;;;;;;;;;;8299888;28;20125;-60
2023/05/17 03:33:37;;;;;;;5.50;1.98;;;;;;;;;;8297670;28;20122;-60
2023/05/17 03:37:37;;;;;;;7.43;1.52;;;;;;;;;;8298181;28;20127;-60
2023/05/17 03:41:37;;;;;;;4.32;1.60;;;;;;;;;;8299047;28;20025;-60
2023/05/17 03:45:37;;;;;;;6.32;1.70;;;;;;;;;;8297352;28;20041;-60
2023/05/17 03:49:38;;;;;;;4.78;1.63;;;;;;;;;;8295570;28;20029;-60
2023/05/17 03:53:41;;;;;;;6.05;1.83;;;;;;;;;;8297476;28;20529;-60
2023/05/17 03:57:42;;;;;;;7.47;1.92;;;;;;;;;;8298087;28;20565;-60
2023/05/17 04:01:42;;;;;;;4.82;1.83;;;;;;;;;;8298853;28;20126;-60
2023/05/17 04:05:45;;;;;;;3.80;1.97;;;;;;;;;;8298190;28;20029;-60
2023/05/17 04:09:45;;;;;;;5.03;2.00;;;;;;;;;;8298208;28;20291;-60
2023/05/17 04:13:45;;;;;;;4.53;1.50;;;;;;;;;;8297563;28;20060;-60
2023/05/17 04:17:46;;;;;;;3.47;1.80;;;;;;;;;;8294434;28;20175;-60
2023/05/17 04:21:46;;;;;;;4.57;1.92;;;;;;;;;;8299454;28;20025;-60
2023/05/17 04:25:46;;;;;;;3.20;1.73;;;;;;;;;;8298189;28;20052;-60
2023/05/17 04:29:46;;;;;;;3.72;1.95;;;;;;;;;;8296663;28;20071;-60
2023/05/17 04:33:46;;;;;;;5.07;2.20;;;;;;;;;;8296850;28;20406;-60
2023/05/17 04:37:46;;;;;;;6.80;2.15;;;;;;;;;;8296090;28;20033;-60
2023/05/17 04:41:47;;;;;;;7.20;1.85;;;;;;;;;;8297770;28;20771;-60
2023/05/17 04:45:49;;;;;;;3.83;1.67;;;;;;;;;;8295459;28;20037;-60
2023/05/17 04:49:50;;;;;;;3.72;1.95;;;;;;;;;;8298554;28;20859;-60
2023/05/17 04:53:50;;;;;;;5.03;1.98;;;;;;;;;;8295313;28;20021;-61
2023/05/17 04:57:50;;;;;;;5.07;2.40;;;;;;;;;;8292732;28;20018;-60
2023/05/17 05:01:50;;;;;;;4.10;2.10;;;;;;;;;;8295035;28;20136;-60
2023/05/17 05:05:51;;;;;;;7.03;2.10;;;;;;;;;;8294414;28;20071;-60
2023/05/17 05:09:51;;;;;;;5.25;2.13;;;;;;;;;;8294597;28;20037;-60
2023/05/17 05:13:51;;;;;;;4.35;2.00;;;;;;;;;;8294588;28;20099;-60
2023/05/17 05:17:51;;;;;;;5.88;2.13;;;;;;;;;;8293944;28;20073;-60
2023/05/17 05:21:51;;;;;;;4.78;2.17;;;;;;;;;;8296604;28;20052;-60
2023/05/17 05:25:51;;;;;;;6.00;2.30;;;;;;;;;;8297273;28;20064;-60
2023/05/17 05:29:54;;;;;;;5.75;2.25;;;;;;;;;;8295746;28;20031;-60
2023/05/17 05:33:54;;;;;;;5.55;1.92;;;;;;;;;;8303516;28;20684;-60
2023/05/17 05:37:56;;;;;;;4.13;2.08;;;;;;;;;;8297987;28;20032;-60
2023/05/17 05:41:56;;;;;;;4.80;1.98;;;;;;;;;;8295548;28;20028;-59
2023/05/17 05:45:56;;;;;;;7.50;2.10;;;;;;;;;;8297418;28;20057;-59
2023/05/17 05:49:57;;;;;;;4.05;1.92;;;;;;;;;;8298174;28;20751;-60
2023/05/17 05:53:58;;;;;;;4.07;2.00;;;;;;;;;;8299166;28;20196;-60
2023/05/17 05:57:58;;;;;;;5.25;2.30;;;;;;;;;;8293619;28;20122;-60
2023/05/17 06:01:59;;;;;;;6.10;2.40;;;;;;;;;;8294973;28;20131;-60
2023/05/17 06:05:59;;;;;;;6.65;2.30;;;;;;;;;;8298443;28;20032;-60
2023/05/17 06:09:59;;;;;;;4.50;2.10;;;;;;;;;;8294471;28;20130;-60
2023/05/17 06:14:00;;;;;;;5.35;2.42;;;;;;;;;;8302383;28;20282;-60
2023/05/17 06:18:00;;;;;;;7.07;2.65;;;;;;;;;;8299130;28;20053;-60
2023/05/17 06:22:00;;;;;;;6.40;2.60;;;;;;;;;;8298388;28;20040;-60
2023/05/17 06:26:00;;;;;;;5.82;2.50;;;;;;;;;;8297181;28;20090;-60
2023/05/17 06:30:01;;;;;;;6.63;2.67;;;;;;;;;;8299670;28;20039;-60
2023/05/17 06:34:01;;;;;;;7.37;2.90;;;;;;;;;;8299693;28;20038;-61
2023/05/17 06:38:01;;;;;;;5.43;2.77;;;;;;;;;;8302342;28;20279;-60
2023/05/17 06:42:01;;;;;;;6.60;2.65;;;;;;;;;;8303540;28;20087;-61
2023/05/17 06:46:01;;;;;;;6.28;2.60;;;;;;;;;;8304001;28;20033;-61
2023/05/17 06:50:01;;;;;;;7.55;2.85;;;;;;;;;;8303574;28;20024;-61
2023/05/17 06:54:02;;;;;;;7.18;2.70;;;;;;;;;;8303509;28;20018;-60
2023/05/17 06:58:02;;;;;;;6.70;2.38;;;;;;;;;;8302155;28;20035;-61
2023/05/17 07:02:02;;;;;;;5.40;2.57;;;;;;;;;;8300503;28;20046;-60
2023/05/17 07:06:03;;;;;;;11.67;2.80;;;;;;;;;;8302251;28;20404;-60
2023/05/17 07:10:04;;;;;;;6.57;2.70;;;;;;;;;;8302450;28;20401;-60
2023/05/17 07:14:04;;;;;;;6.15;2.72;;;;;;;;;;8303804;28;20033;-60
2023/05/17 07:18:04;;;;;;;6.30;2.30;;;;;;;;;;8299759;28;20628;-60
2023/05/17 07:22:05;;;;;;;7.55;2.90;;;;;;;;;;8304576;28;20087;-60
2023/05/17 07:26:05;;;;;;;11.07;2.83;;;;;;;;;;8315715;28;20029;-60
2023/05/17 07:30:06;;;;;;;7.18;2.95;;;;;;;;;;8299716;28;20080;-61
2023/05/17 07:34:06;;;;;;;8.27;2.70;;;;;;;;;;8300512;28;20799;-60
2023/05/17 07:38:06;;;;;;;7.25;2.83;;;;;;;;;;8298699;28;20212;-61
2023/05/17 07:42:07;;;;;;;5.43;2.50;;;;;;;;;;8301869;28;20140;-60
2023/05/17 07:46:07;;;;;;;6.90;2.85;;;;;;;;;;8299936;28;20029;-61
2023/05/17 07:50:07;;;;;;;6.35;2.70;;;;;;;;;;8299687;28;20080;-60
2023/05/17 07:54:07;;;;;;;6.78;2.80;;;;;;;;;;8294265;28;20111;-61
2023/05/17 07:58:10;;;;;;;7.05;2.35;;;;;;;;;;8297172;28;20144;-60
2023/05/17 08:02:11;;;;;;;5.25;2.25;;;;;;;;;;8297486;28;20038;-60
2023/05/17 08:06:11;;;;;;;5.00;2.37;;;;;;;;;;8306852;28;20032;-60
2023/05/17 08:10:11;;;;;;;4.90;2.50;;;;;;;;;;8300044;28;20056;-60
2023/05/17 08:14:15;;;;;;;6.40;2.27;;;;;;;;;;8297272;28;20486;-60
2023/05/17 08:18:15;;;;;;;;;;;;;;;;;;8299350;28;20272;-62
2023/05/17 08:22:15;;;;;;;5.88;2.50;;;;;;;;;;8298163;28;19924;-60
2023/05/17 08:26:16;;;;;;;4.88;1.77;;;;;;;;;;8299561;28;20028;-61
2023/05/17 08:30:16;;;;;;;5.40;1.70;;;;;;;;;;8301095;28;20041;-61
2023/05/17 08:34:17;;;;;;;4.97;2.07;;;;;;;;;;8298289;28;20055;-61
2023/05/17 08:38:17;;;;;;;4.30;2.20;;;;;;;;;;8299404;28;20076;-60
2023/05/17 08:42:20;;;;;;;5.18;1.95;;;;;;;;;;8298017;28;20021;-60
2023/05/17 08:46:21;;;;;;;4.27;2.07;;;;;;;;;;8297158;28;20037;-61
2023/05/17 08:50:21;;;;;;;6.57;1.70;;;;;;;;;;8296412;28;20036;-60
2023/05/17 08:54:21;;;;;;;8.07;2.10;;;;;;;;;;8298442;28;20032;-61
2023/05/17 08:58:25;;;;;;;5.07;2.15;;;;;;;;;;8299045;28;20367;-60
2023/05/17 09:02:25;;;;;;;6.03;2.58;;;;;;;;;;8296944;28;20144;-60
2023/05/17 09:06:26;;;;;;;5.82;2.47;;;;;;;;;;8300081;28;20123;-61
2023/05/17 09:10:26;;;;;;;3.78;2.08;;;;;;;;;;8298602;28;20048;-60
2023/05/17 09:14:31;;;;;;;4.73;2.30;;;;;;;;;;8299103;28;20021;-60
2023/05/17 09:18:31;;;;;;;3.95;1.90;;;;;;;;;;8297749;28;20402;-60
2023/05/17 09:22:31;;;;;;;5.18;2.20;;;;;;;;;;8298169;28;20033;-60
2023/05/17 09:26:38;;;;;;;4.65;2.08;;;;;;;;;;8299190;28;20026;-60
2023/05/17 09:30:38;;;;;;;6.00;2.15;;;;;;;;;;8297043;28;20044;-60
2023/05/17 09:34:42;;;;;;;4.65;2.10;;;;;;;;;;8296928;28;20029;-60
2023/05/17 09:38:43;;;;;;;7.50;1.95;;;;;;;;;;8293265;28;20018;-60
2023/05/17 09:42:46;;;;;;;6.22;2.40;;;;;;;;;;8296233;28;20036;-60
2023/05/17 09:46:46;;;;;;;;;;;;;;;;;;8294551;28;20418;-60
2023/05/17 09:50:47;;;;;;;5.63;2.20;;;;;;;;;;8297698;28;19917;-60
2023/05/17 09:54:55;;;;;;;4.68;2.10;;;;;;;;;;8302026;28;20052;-60
2023/05/17 09:58:56;;;;;;;7.35;2.22;;;;;;;;;;8302890;28;20473;-60
2023/05/17 10:02:57;;;;;;;5.28;2.45;;;;;;;;;;8301816;28;20029;-60
2023/05/17 10:06:59;;;;;;;6.03;2.15;;;;;;;;;;8301711;28;20025;-64
2023/05/17 10:11:02;;;;;;;6.32;2.60;;;;;;;;;;8302175;28;20030;-60
2023/05/17 10:15:04;;;;;;;4.15;2.15;;;;;;;;;;8301755;28;20018;-61
2023/05/17 10:19:04;;;;;;;6.15;2.25;;;;;;;;;;8300192;28;20029;-60
2023/05/17 10:23:05;;;;;;;4.73;2.10;;;;;;;;;;8302710;28;20474;-61
2023/05/17 10:27:08;;;;;;;5.13;1.88;;;;;;;;;;8300236;28;20452;-60
2023/05/17 10:31:09;;;;;;;7.47;2.63;;;;;;;;;;8301055;28;20061;-60
2023/05/17 10:35:09;;;;;;;5.60;2.15;;;;;;;;;;8300350;28;20118;-60
2023/05/17 10:39:10;;;;;;;5.28;2.25;;;;;;;;;;8296734;28;20036;-60
2023/05/17 10:43:11;;;;;;;4.03;2.13;;;;;;;;;;8300146;28;20017;-60
2023/05/17 10:47:13;;;;;;;4.45;2.17;;;;;;;;;;8301473;28;20041;-60
2023/05/17 10:51:15;;;;;;;4.63;2.38;;;;;;;;;;8301304;28;20121;-60
2023/05/17 10:55:22;;;;;;;6.10;2.30;;;;;;;;;;8303001;28;20026;-60
2023/05/17 10:59:23;;;;;;;3.45;2.00;;;;;;;;;;8299406;28;20039;-60
2023/05/17 11:03:32;;;;;;;3.67;2.15;;;;;;;;;;8301600;28;20037;-61
2023/05/17 11:07:36;;;;;;;4.90;2.33;;;;;;;;;;8300350;28;20029;-60
2023/05/17 11:11:36;;;;;;;5.68;2.53;;;;;;;;;;8299560;28;20031;-61
2023/05/17 11:15:36;;;;;;;6.47;2.53;;;;;;;;;;8299970;28;20071;-60
2023/05/17 11:19:36;;;;;;;5.18;2.50;;;;;;;;;;8297659;28;20030;-60
2023/05/17 11:23:37;;;;;;;6.35;2.60;;;;;;;;;;8302350;28;20095;-61
2023/05/17 11:27:43;;;;;;;3.85;2.40;;;;;;;;;;8299296;28;20849;-60
2023/05/17 11:31:44;;;;;;;5.28;2.58;;;;;;;;;;8299315;28;20847;-60
2023/05/17 11:35:44;;;;;;;6.03;2.80;;;;;;;;;;8300397;28;20021;-60
2023/05/17 11:40:04;;;;;;;6.22;2.67;;;;;;;;;;8297301;28;20041;-60
2023/05/17 11:44:04;;;;;;;8.20;2.53;;;;;;;;;;8299726;28;20040;-60
2023/05/17 11:48:05;;;;;;;5.78;2.50;;;;;;;;;;8298749;28;20045;-61
2023/05/17 11:52:06;;;;;;;5.47;2.55;;;;;;;;;;8299488;28;20108;-62
2023/05/17 11:56:07;;;;;;;5.72;2.42;;;;;;;;;;8300516;28;20017;-61
2023/05/17 12:00:07;;;;;;;6.28;2.63;;;;;;;;;;8297046;28;20060;-62
2023/05/17 12:04:07;;;;;;;8.25;2.80;;;;;;;;;;8299317;28;20045;-61
2023/05/17 12:08:08;;;;;;;5.28;2.30;;;;;;;;;;8298416;28;20098;-61
2023/05/17 12:12:08;;;;;;;5.57;2.60;;;;;;;;;;8299348;28;20061;-61
2023/05/17 12:16:10;;;;;;;4.63;2.25;;;;;;;;;;8292530;28;20626;-60
2023/05/17 12:20:10;;;;;;;5.63;2.58;;;;;;;;;;8293689;28;20085;-61
2023/05/17 12:24:10;;;;;;;4.75;2.65;;;;;;;;;;8297920;28;20147;-60
2023/05/17 12:28:11;;;;;;;5.97;2.60;;;;;;;;;;8295055;28;20035;-61
2023/05/17 12:32:11;;;;;;;4.75;2.50;;;;;;;;;;8297659;28;20812;-61
2023/05/17 12:36:12;;;;;;;6.68;2.60;;;;;;;;;;8297903;28;20029;-61
2023/05/17 12:40:12;;;;;;;6.47;2.88;;;;;;;;;;8295495;28;20021;-61
2023/05/17 12:44:14;;;;;;;5.00;2.40;;;;;;;;;;8299040;28;20040;-61
2023/05/17 12:48:14;;;;;;;8.00;2.40;;;;;;;;;;8293910;28;20040;-61
2023/05/17 12:52:16;;;;;;;4.10;2.35;;;;;;;;;;8295263;28;20084;-61
2023/05/17 12:56:18;;;;;;;5.70;2.70;;;;;;;;;;8294695;28;20878;-61
2023/05/17 13:00:19;;;;;;;4.95;2.40;;;;;;;;;;8295322;28;21030;-61
2023/05/17 13:04:20;;;;;;;4.20;2.13;;;;;;;;;;8294336;28;20384;-61
2023/05/17 13:08:20;;;;;;;6.90;2.55;;;;;;;;;;8294640;28;20033;-61
2023/05/17 13:12:23;;;;;;;4.75;2.35;;;;;;;;;;8294923;28;20024;-61
2023/05/17 13:16:27;;;;;;;5.97;2.72;;;;;;;;;;8295064;28;20046;-61
2023/05/17 13:20:28;;;;;;;5.07;2.22;;;;;;;;;;8287995;28;20128;-61
2023/05/17 13:24:29;;;;;;;7.03;2.50;;;;;;;;;;8300359;28;20065;-61
2023/05/17 13:28:30;;;;;;;5.68;2.45;;;;;;;;;;8299592;28;21020;-61
2023/05/17 13:32:30;;;;;;;3.58;2.15;;;;;;;;;;8301024;28;20118;-61
2023/05/17 13:36:30;;;;;;;4.70;2.33;;;;;;;;;;8303539;28;20040;-61
2023/05/17 13:40:30;;;;;;;3.63;2.33;;;;;;;;;;8316033;28;21244;-61
2023/05/17 13:44:31;;;;;;;5.40;2.50;;;;;;;;;;8305315;28;20419;-61
2023/05/17 13:48:31;;;;;;;7.10;2.83;;;;;;;;;;8300205;28;20052;-61
2023/05/17 13:52:31;;;;;;;6.70;2.67;;;;;;;;;;8302972;28;20634;-61
2023/05/17 13:56:31;;;;;;;5.35;2.60;;;;;;;;;;8299692;28;20103;-61
2023/05/17 14:00:32;;;;;;;4.65;2.47;;;;;;;;;;8294058;28;20473;-61
2023/05/17 14:04:32;;;;;;;5.15;2.08;;;;;;;;;;8297349;28;20765;-61
2023/05/17 14:08:33;;;;;;;6.80;2.30;;;;;;;;;;8295338;28;20029;-61
2023/05/17 14:12:33;;;;;;;6.68;2.40;;;;;;;;;;8302756;28;20021;-61
2023/05/17 14:16:33;;;;;;;3.05;1.80;;;;;;;;;;8301326;28;20041;-61
2023/05/17 14:20:33;;;;;;;4.60;2.20;;;;;;;;;;8302131;28;20025;-61
2023/05/17 14:24:33;;;;;;;5.47;2.30;;;;;;;;;;8300370;28;20060;-61
2023/05/17 14:28:37;;;;;;;4.75;1.98;;;;;;;;;;8297876;28;20488;-61
2023/05/17 14:32:38;;;;;;;7.32;2.28;;;;;;;;;;8298151;28;20060;-61
2023/05/17 14:36:38;;;;;;;7.43;1.83;;;;;;;;;;8301559;28;20022;-61
2023/05/17 14:40:38;;;;;;;4.43;1.80;;;;;;;;;;8303259;28;20198;-61
2023/05/17 14:44:38;;;;;;;6.15;2.00;;;;;;;;;;8303394;28;20706;-61
2023/05/17 14:48:38;;;;;;;3.63;1.92;;;;;;;;;;8301265;28;20160;-61
2023/05/17 14:52:39;;;;;;;6.05;2.10;;;;;;;;;;8302179;28;20555;-61
2023/05/17 14:56:39;;;;;;;8.23;2.00;;;;;;;;;;8301810;28;20803;-61
2023/05/17 15:00:43;;;;;;;4.78;1.98;;;;;;;;;;8300655;28;20915;-61
2023/05/17 15:04:43;;;;;;;6.32;1.90;;;;;;;;;;8301228;28;20041;-60
2023/05/17 15:08:43;;;;;;;3.58;1.50;;;;;;;;;;8298548;28;20032;-61
2023/05/17 15:12:44;;;;;;;4.00;1.70;;;;;;;;;;8301002;28;20238;-60
2023/05/17 15:16:45;;;;;;;5.43;1.70;;;;;;;;;;8301431;28;20064;-61
2023/05/17 15:20:45;;;;;;;4.65;1.88;;;;;;;;;;8297374;28;20032;-60
2023/05/17 15:24:45;;;;;;;3.90;1.88;;;;;;;;;;8300615;28;20029;-61
2023/05/17 15:28:48;;;;;;;5.60;1.75;;;;;;;;;;8298720;28;20025;-61
2023/05/17 15:32:49;;;;;;;5.33;1.73;;;;;;;;;;8299918;28;20038;-61
2023/05/17 15:36:49;;;;;;;4.68;1.88;;;;;;;;;;8298881;28;20279;-60
2023/05/17 15:41:01;;;;;;;6.07;1.97;;;;;;;;;;8301498;28;20844;-61
2023/05/17 15:45:01;;;;;;;8.60;1.95;;;;;;;;;;8298527;28;20818;-61
2023/05/17 15:49:01;;;;;;;5.10;1.80;;;;;;;;;;8298270;28;20048;-60
2023/05/17 15:53:02;;;;;;;7.75;1.67;;;;;;;;;;8298971;28;20021;-60
2023/05/17 15:57:02;;;;;;;4.63;1.80;;;;;;;;;;8299439;28;20703;-60
2023/05/17 16:01:03;;;;;;;4.60;1.77;;;;;;;;;;8297879;28;20355;-60
2023/05/17 16:05:03;;;;;;;6.07;1.75;;;;;;;;;;8298307;28;20025;-60
2023/05/17 16:09:04;;;;;;;5.10;1.95;;;;;;;;;;8299408;28;20029;-60
2023/05/17 16:13:05;;;;;;;6.33;1.90;;;;;;;;;;8300115;28;20139;-60
2023/05/17 16:17:05;;;;;;;4.78;1.80;;;;;;;;;;8298889;28;20103;-61
2023/05/17 16:21:06;;;;;;;5.40;1.88;;;;;;;;;;8299496;28;20025;-60
2023/05/17 16:25:06;;;;;;;4.45;1.75;;;;;;;;;;8299972;28;20079;-61
2023/05/17 16:29:07;;;;;;;7.32;1.70;;;;;;;;;;8299484;28;20063;-60
2023/05/17 16:33:07;;;;;;;5.63;1.77;;;;;;;;;;8297262;28;20033;-60
2023/05/17 16:37:08;;;;;;;7.22;1.85;;;;;;;;;;8296422;28;20064;-60
2023/05/17 16:41:08;;;;;;;6.45;1.90;;;;;;;;;;8293036;28;20492;-61
2023/05/17 16:45:09;;;;;;;5.45;1.67;;;;;;;;;;8292669;28;20043;-61
2023/05/17 16:49:09;;;;;;;4.73;1.57;;;;;;;;;;8295114;28;20783;-60
2023/05/17 16:53:09;;;;;;;10.20;1.83;;;;;;;;;;8298421;28;20271;-60
2023/05/17 16:57:10;;;;;;;6.27;1.60;;;;;;;;;;8296356;28;20021;-60
2023/05/17 17:01:10;;;;;;;6.15;1.80;;;;;;;;;;8294265;28;20283;-61
2023/05/17 17:05:10;;;;;;;6.38;1.63;;;;;;;;;;8293797;28;20831;-61
2023/05/17 17:09:11;;;;;;;9.33;2.17;;;;;;;;;;8294609;28;20070;-61
2023/05/17 17:13:11;;;;;;;4.10;1.63;;;;;;;;;;8294761;28;20040;-60
2023/05/17 17:17:12;;;;;;;6.82;1.95;;;;;;;;;;8290274;28;20529;-61
2023/05/17 17:21:12;;;;;;;7.10;1.75;;;;;;;;;;8295553;28;20474;-60
2023/05/17 17:25:12;;;;;;;5.37;1.83;;;;;;;;;;8293880;28;20028;-61
2023/05/17 17:29:12;;;;;;;4.75;1.70;;;;;;;;;;8288979;28;20506;-61
2023/05/17 17:33:13;;;;;;;3.15;1.40;;;;;;;;;;8291915;28;20266;-60
2023/05/17 17:37:13;;;;;;;4.65;1.60;;;;;;;;;;8294597;28;20148;-60
2023/05/17 17:41:13;;;;;;;4.57;1.60;;;;;;;;;;8296035;28;20032;-61
2023/05/17 17:45:13;;;;;;;3.83;1.90;;;;;;;;;;8294854;28;20029;-61
2023/05/17 17:49:14;;;;;;;3.92;1.45;;;;;;;;;;8294352;28;20029;-60
2023/05/17 17:53:15;;;;;;;3.38;1.45;;;;;;;;;;8298099;28;20017;-61
2023/05/17 17:57:17;;;;;;;4.72;1.63;;;;;;;;;;8296211;28;20034;-60
2023/05/17 18:01:17;;;;;;;3.53;1.60;;;;;;;;;;8294280;28;20043;-61
2023/05/17 18:05:18;;;;;;;4.05;1.40;;;;;;;;;;8294896;28;20033;-61
2023/05/17 18:09:18;;;;;;;3.97;1.50;;;;;;;;;;8302160;28;20025;-60
2023/05/17 18:13:18;;;;;;;4.55;1.33;;;;;;;;;;8302682;28;20040;-60
2023/05/17 18:17:19;;;;;;;5.47;1.50;;;;;;;;;;8294364;28;20622;-60
2023/05/17 18:21:19;;;;;;;6.63;1.20;;;;;;;;;;8302307;28;20041;-61
2023/05/17 18:25:20;;;;;;;3.90;1.70;;;;;;;;;;8294290;28;20462;-61
2023/05/17 18:29:20;;;;;;;4.63;1.38;;;;;;;;;;8293383;28;20317;-60
2023/05/17 18:33:20;;;;;;;4.43;1.50;;;;;;;;;;8294524;28;20034;-61
2023/05/17 18:37:20;;;;;;;5.35;1.60;;;;;;;;;;8294679;28;20499;-62
2023/05/17 18:41:21;;;;;;;5.18;1.50;;;;;;;;;;8293852;28;20029;-61
2023/05/17 18:45:21;;;;;;;5.43;1.60;;;;;;;;;;8288569;28;20040;-61
2023/05/17 18:49:21;;;;;;;5.97;1.90;;;;;;;;;;8285194;28;20018;-60
2023/05/17 18:53:22;;;;;;;4.95;1.60;;;;;;;;;;8292498;28;20033;-60
2023/05/17 18:57:22;;;;;;;4.10;1.63;;;;;;;;;;8295434;28;20057;-60
2023/05/17 19:01:23;;;;;;;4.13;1.75;;;;;;;;;;8292813;28;20883;-60
2023/05/17 19:05:23;;;;;;;7.90;1.80;;;;;;;;;;8295988;28;20060;-61
2023/05/17 19:09:23;;;;;;;3.80;1.60;;;;;;;;;;8297708;28;20025;-60
2023/05/17 19:13:25;;;;;;;7.43;1.80;;;;;;;;;;8297290;28;20025;-60
2023/05/17 19:17:26;;;;;;;5.78;1.70;;;;;;;;;;8296849;28;20073;-60
2023/05/17 19:21:26;;;;;;;4.63;1.33;;;;;;;;;;8297129;28;20044;-60
2023/05/17 19:25:26;;;;;;;3.50;1.25;;;;;;;;;;8296345;28;20021;-60
2023/05/17 19:29:27;;;;;;;4.68;1.67;;;;;;;;;;8297892;28;20942;-60
2023/05/17 19:33:27;;;;;;;6.03;1.73;;;;;;;;;;8295156;28;21088;-60
2023/05/17 19:37:28;;;;;;;4.03;1.45;;;;;;;;;;8296864;28;20726;-60
2023/05/17 19:41:28;;;;;;;6.60;1.67;;;;;;;;;;8296008;28;20072;-60
2023/05/17 19:45:28;;;;;;;5.07;1.58;;;;;;;;;;8293149;28;20037;-60
2023/05/17 19:49:29;;;;;;;5.53;1.70;;;;;;;;;;8294451;28;20456;-60
2023/05/17 19:53:29;;;;;;;4.28;2.00;;;;;;;;;;8294250;28;20090;-61
2023/05/17 19:57:30;;;;;;;2.50;1.55;;;;;;;;;;8295024;28;20037;-60
2023/05/17 20:01:30;;;;;;;8.52;1.70;;;;;;;;;;8295461;28;20470;-60
2023/05/17 20:05:31;;;;;;;5.00;1.75;;;;;;;;;;8296029;28;20083;-60
2023/05/17 20:09:31;;;;;;;6.30;1.80;;;;;;;;;;8295444;28;20031;-60
2023/05/17 20:13:32;;;;;;;3.30;1.75;;;;;;;;;;8296153;28;20021;-60
2023/05/17 20:17:33;;;;;;;8.43;1.67;;;;;;;;;;8291462;28;20041;-60
2023/05/17 20:21:33;;;;;;;6.72;1.60;;;;;;;;;;8296913;28;20031;-60
2023/05/17 20:25:33;;;;;;;4.40;1.85;;;;;;;;;;8297287;28;20086;-60
2023/05/17 20:29:33;;;;;;;6.47;1.70;;;;;;;;;;8295242;28;20056;-60
2023/05/17 20:33:33;;;;;;;6.70;1.92;;;;;;;;;;8295284;28;20126;-60
2023/05/17 20:37:34;;;;;;;7.50;2.03;;;;;;;;;;8289615;28;20081;-60
2023/05/17 20:41:34;;;;;;;5.88;1.77;;;;;;;;;;8296085;28;20036;-61
2023/05/17 20:45:35;;;;;;;4.35;1.50;;;;;;;;;;8295102;28;20056;-60
2023/05/17 20:49:35;;;;;;;5.13;1.63;;;;;;;;;;8296347;28;20033;-60
2023/05/17 20:53:37;;;;;;;5.47;1.90;;;;;;;;;;8298877;28;20152;-60
2023/05/17 20:57:37;;;;;;;7.75;1.77;;;;;;;;;;8297752;28;20056;-60
2023/05/17 21:01:37;;;;;;;11.33;2.30;;;;;;;;;;8295949;28;20025;-60
2023/05/17 21:05:37;;;;;;;4.78;1.58;;;;;;;;;;8296531;28;20033;-61
2023/05/17 21:09:37;;;;;;;6.20;1.67;;;;;;;;;;8296346;28;20037;-60
2023/05/17 21:13:38;;;;;;;8.50;1.90;;;;;;;;;;8295538;28;20033;-61
2023/05/17 21:17:38;;;;;;;6.83;1.70;;;;;;;;;;8290312;28;20125;-60
2023/05/17 21:21:38;;;;;;;4.85;1.63;;;;;;;;;;8299157;28;20279;-60
2023/05/17 21:25:38;;;;;;;6.13;1.67;;;;;;;;;;8297856;28;20609;-61
2023/05/17 21:29:39;;;;;;;6.93;1.77;;;;;;;;;;8297214;28;21025;-61
2023/05/17 21:33:39;;;;;;;8.97;1.80;;;;;;;;;;8295436;28;20031;-60
2023/05/17 21:37:40;;;;;;;4.78;1.60;;;;;;;;;;8294382;28;20314;-60
2023/05/17 21:41:40;;;;;;;6.60;1.40;;;;;;;;;;8298954;28;20044;-60
2023/05/17 21:45:41;;;;;;;7.32;1.92;;;;;;;;;;8304082;28;20033;-60
2023/05/17 21:49:41;;;;;;;7.07;2.17;;;;;;;;;;8302626;28;20250;-60
2023/05/17 21:53:41;;;;;;;4.33;1.87;;;;;;;;;;8302807;28;20136;-60
2023/05/17 21:57:41;;;;;;;4.15;1.30;;;;;;;;;;8304011;28;20013;-60
2023/05/17 22:01:41;;;;;;;4.53;2.30;;;;;;;;;;8303466;28;20025;-60
2023/05/17 22:05:42;;;;;;;7.43;1.77;;;;;;;;;;8304334;28;20044;-60
2023/05/17 22:09:44;;;;;;;9.55;1.98;;;;;;;;;;8298713;28;20026;-60
2023/05/17 22:13:44;;;;;;;7.32;1.70;;;;;;;;;;8300411;28;20089;-60
2023/05/17 22:17:44;;;;;;;5.43;1.83;;;;;;;;;;8299456;28;20120;-60
2023/05/17 22:21:44;;;;;;;6.68;1.85;;;;;;;;;;8304156;28;20025;-60
2023/05/17 22:25:45;;;;;;;10.88;2.05;;;;;;;;;;8302849;28;20029;-60
2023/05/17 22:29:45;;;;;;;5.40;1.50;;;;;;;;;;8301755;28;20111;-60
2023/05/17 22:33:45;;;;;;;5.38;1.75;;;;;;;;;;8302115;28;20123;-60
2023/05/17 22:37:45;;;;;;;6.07;1.98;;;;;;;;;;8302890;28;20029;-60
2023/05/17 22:41:46;;;;;;;10.15;2.00;;;;;;;;;;8302839;28;20029;-59
2023/05/17 22:45:46;;;;;;;4.17;1.40;;;;;;;;;;8301084;28;20048;-60
2023/05/17 22:49:47;;;;;;;4.53;1.60;;;;;;;;;;8299838;28;20096;-59
2023/05/17 22:53:47;;;;;;;7.05;1.85;;;;;;;;;;8302151;28;20028;-60
2023/05/17 22:57:47;;;;;;;6.32;1.80;;;;;;;;;;8302776;28;20028;-61
2023/05/17 23:01:47;;;;;;;10.40;2.00;;;;;;;;;;8302063;28;20036;-60
2023/05/17 23:05:48;;;;;;;6.13;2.00;;;;;;;;;;8305307;28;20036;-60
2023/05/17 23:09:48;;;;;;;7.65;1.90;;;;;;;;;;8301568;28;20067;-60
2023/05/17 23:13:48;;;;;;;7.75;1.50;;;;;;;;;;8301121;28;20028;-59
2023/05/17 23:17:49;;;;;;;6.03;1.80;;;;;;;;;;8298700;28;20037;-60
2023/05/17 23:21:49;;;;;;;5.40;1.58;;;;;;;;;;8300263;28;20352;-60
2023/05/17 23:25:50;;;;;;;4.53;2.03;;;;;;;;;;8299994;28;20032;-60
2023/05/17 23:29:52;;;;;;;8.25;2.00;;;;;;;;;;8299275;28;20113;-60
2023/05/17 23:33:52;;;;;;;7.72;1.70;;;;;;;;;;8301093;28;20179;-59
2023/05/17 23:37:53;;;;;;;7.70;1.70;;;;;;;;;;8300595;28;20020;-60
2023/05/17 23:41:53;;;;;;;6.43;1.60;;;;;;;;;;8300375;28;20025;-59
2023/05/17 23:45:53;;;;;;;4.13;1.42;;;;;;;;;;8296749;28;20079;-60
2023/05/17 23:49:54;;;;;;;6.38;1.75;;;;;;;;;;8299611;28;20147;-60
2023/05/17 23:53:54;;;;;;;7.90;1.85;;;;;;;;;;8301523;28;20017;-60
2023/05/17 23:57:54;;;;;;;3.78;1.30;;;;;;;;;;8299399;28;20111;-60
